Time;durP1;ratioP1;P1;durP2;ratioP2;P2;SDS_P1;SDS_P2;PMS_P1;PMS_P2;Temp;Humidity;BMP_temperature;BMP_pressure;BME280_temperature;BME280_humidity;BME280_pressure;Samples;Min_cycle;Max_cycle;Signal;HPM_P1;HPM_P2
2022/11/21 00:00:41;;;;;;;8.43;6.37;;;-0.30;99.90;-1.20;99220;;;;569879;249;24106;-79
2022/11/21 00:03:09;;;;;;;9.00;6.37;;;-0.30;99.90;-1.20;99213;;;;565201;251;24138;-79
2022/11/21 00:05:43;;;;;;;10.07;6.63;;;-0.30;99.90;-1.20;99218;;;;565363;251;24089;-79
2022/11/21 00:08:14;;;;;;;12.70;8.83;;;-0.20;99.90;-1.20;99219;;;;570414;251;25198;-79
2022/11/21 00:10:41;;;;;;;11.40;6.60;;;-0.30;99.90;-1.10;99217;;;;564418;251;24231;-79
2022/11/21 00:13:09;;;;;;;10.93;7.80;;;-0.20;99.90;-1.10;99226;;;;562795;251;24139;-80
2022/11/21 00:15:35;;;;;;;9.83;6.60;;;-0.20;99.90;-1.10;99227;;;;564902;251;24104;-79
2022/11/21 00:18:07;;;;;;;9.40;6.97;;;-0.20;99.90;-1.10;99229;;;;570415;251;25123;-78
2022/11/21 00:20:36;;;;;;;8.67;6.73;;;-0.20;99.90;-1.10;99232;;;;570123;246;24132;-79
2022/11/21 00:23:00;;;;;;;9.90;7.27;;;-0.20;99.90;-1.10;99225;;;;569723;251;24112;-78
2022/11/21 00:25:27;;;;;;;7.30;4.50;;;-0.20;99.90;-1.10;99229;;;;571281;250;24121;-79
2022/11/21 00:27:56;;;;;;;7.27;5.00;;;-0.20;99.90;-1.10;99240;;;;571733;250;24108;-79
2022/11/21 00:30:24;;;;;;;7.80;4.60;;;-0.20;99.90;-1.10;99239;;;;571348;250;24143;-79
2022/11/21 00:32:52;;;;;;;5.70;4.37;;;-0.10;99.90;-1.00;99248;;;;571152;250;24129;-79
2022/11/21 00:35:20;;;;;;;7.80;5.60;;;-0.10;99.90;-1.00;99256;;;;570842;245;24059;-78
2022/11/21 00:37:49;;;;;;;7.13;5.43;;;-0.10;99.90;-1.00;99265;;;;571063;251;24083;-80
2022/11/21 00:40:19;;;;;;;5.07;4.20;;;-0.10;99.90;-1.00;99265;;;;570708;245;24121;-82
2022/11/21 00:42:44;;;;;;;11.13;7.97;;;0.00;99.90;-1.00;99266;;;;574048;250;24129;-78
2022/11/21 00:45:11;;;;;;;11.33;7.77;;;0.00;99.90;-1.00;99265;;;;570525;251;24121;-79
2022/11/21 00:47:39;;;;;;;8.47;5.80;;;0.00;99.90;-1.00;99273;;;;570399;251;24086;-79
2022/11/21 00:50:07;;;;;;;10.00;6.40;;;0.00;99.90;-1.00;99269;;;;565401;251;24090;-78
2022/11/21 00:52:35;;;;;;;12.27;9.07;;;0.00;99.90;-1.00;99267;;;;566403;251;24080;-79
2022/11/21 00:55:03;;;;;;;11.27;7.43;;;0.00;99.90;-1.00;99273;;;;570442;251;24133;-80
2022/11/21 00:57:31;;;;;;;9.67;6.43;;;0.00;99.90;-0.90;99269;;;;570429;251;24089;-78
2022/11/21 00:59:59;;;;;;;8.73;6.13;;;0.00;99.90;-1.00;99272;;;;570631;251;24100;-79
2022/11/21 01:02:27;;;;;;;7.33;5.60;;;0.00;99.90;-0.90;99277;;;;570899;251;24094;-80
2022/11/21 01:04:55;;;;;;;12.43;7.57;;;0.00;99.90;-0.90;99267;;;;570178;251;24127;-79
2022/11/21 01:07:23;;;;;;;11.63;6.17;;;0.00;99.90;-0.90;99263;;;;570444;251;24110;-79
2022/11/21 01:09:51;;;;;;;10.60;6.80;;;0.00;99.90;-0.90;99259;;;;570504;245;24078;-79
2022/11/21 01:12:18;;;;;;;7.77;4.67;;;0.00;99.90;-0.90;99259;;;;565141;251;25208;-80
2022/11/21 01:14:49;;;;;;;10.23;6.73;;;0.00;99.90;-0.90;99258;;;;569844;251;25132;-79
2022/11/21 01:17:17;;;;;;;11.70;7.53;;;0.00;99.90;-0.90;99248;;;;560320;250;24196;-79
2022/11/21 01:19:43;;;;;;;8.47;6.47;;;0.00;99.90;-0.90;99237;;;;560394;251;24089;-80
2022/11/21 01:22:11;;;;;;;7.13;5.27;;;0.00;99.90;-0.90;99248;;;;569731;251;24106;-79
2022/11/21 01:24:39;;;;;;;10.97;7.73;;;0.00;99.90;-0.90;99248;;;;569634;251;24082;-80
2022/11/21 01:27:07;;;;;;;7.83;4.73;;;0.00;99.90;-0.90;99254;;;;569798;251;24147;-80
2022/11/21 01:29:35;;;;;;;14.43;9.13;;;0.10;99.90;-0.90;99248;;;;569723;251;24140;-80
2022/11/21 01:32:03;;;;;;;10.13;6.67;;;0.10;99.90;-0.90;99240;;;;569862;251;24100;-80
2022/11/21 01:34:31;;;;;;;9.40;4.93;;;0.10;99.90;-0.90;99235;;;;569745;251;24082;-80
2022/11/21 01:37:00;;;;;;;7.10;5.23;;;0.10;99.90;-0.90;99229;;;;570991;245;24076;-81
2022/11/21 01:39:28;;;;;;;8.60;5.10;;;0.10;99.90;-0.90;99238;;;;570831;250;24097;-80
2022/11/21 01:41:56;;;;;;;8.77;6.27;;;0.00;99.90;-0.90;99245;;;;574114;250;24157;-81
2022/11/21 01:44:24;;;;;;;10.10;6.23;;;0.00;99.90;-0.90;99246;;;;570617;250;24102;-80
2022/11/21 01:46:55;;;;;;;11.30;8.43;;;0.00;99.90;-0.90;99246;;;;573620;247;24164;-80
2022/11/21 01:49:25;;;;;;;15.25;10.27;;;0.10;99.90;-0.90;99247;;;;560391;251;35279;-80
2022/11/21 01:52:08;;;;;;;7.20;5.43;;;0.00;99.90;-0.90;99246;;;;573158;250;24161;-79
2022/11/21 01:54:59;;;;;;;10.13;6.33;;;0.00;99.90;-1.00;99251;;;;565392;248;24083;-79
2022/11/21 01:57:47;;;;;;;13.50;9.20;;;0.00;99.90;-0.90;99250;;;;573978;247;24127;-79
2022/11/21 02:00:21;;;;;;;7.87;5.57;;;0.00;99.90;-0.90;99242;;;;569899;246;25182;-80
2022/11/21 02:02:49;;;;;;;14.03;8.70;;;0.00;99.90;-0.90;99246;;;;565057;251;24122;-82
2022/11/21 02:05:21;;;;;;;16.20;11.03;;;0.00;99.90;-0.90;99240;;;;570180;250;24101;-78
2022/11/21 02:07:49;;;;;;;14.63;9.60;;;0.00;99.90;-1.00;99239;;;;565748;251;24149;-81
2022/11/21 02:10:17;;;;;;;8.70;5.73;;;0.00;99.90;-1.00;99245;;;;565415;251;24133;-79
2022/11/21 02:12:50;;;;;;;9.67;6.93;;;0.00;99.90;-0.90;99241;;;;570256;245;24245;-79
2022/11/21 02:15:18;;;;;;;12.60;8.63;;;0.00;99.90;-0.90;99236;;;;573708;247;24083;-79
2022/11/21 02:17:50;;;;;;;11.67;6.93;;;0.00;99.90;-0.90;99239;;;;565173;251;24155;-80
2022/11/21 02:20:15;;;;;;;14.60;9.63;;;0.00;99.90;-0.90;99234;;;;564674;251;35402;-80
2022/11/21 02:23:07;;;;;;;6.40;4.80;;;0.00;99.90;-0.90;99231;;;;569836;251;25158;-79
2022/11/21 02:25:41;;;;;;;10.97;5.60;;;0.00;99.90;-0.90;99232;;;;565097;251;24144;-80
2022/11/21 02:28:05;;;;;;;14.63;8.83;;;0.10;99.90;-0.90;99228;;;;565745;251;24139;-80
2022/11/21 02:30:33;;;;;;;8.10;5.77;;;0.00;99.90;-0.90;99225;;;;565403;251;24094;-79
2022/11/21 02:33:01;;;;;;;7.87;5.20;;;0.10;99.90;-0.90;99227;;;;570251;245;24083;-79
2022/11/21 02:35:30;;;;;;;11.47;7.43;;;0.10;99.90;-0.90;99224;;;;570349;251;25162;-79
2022/11/21 02:37:58;;;;;;;20.40;11.90;;;0.10;99.90;-0.90;99226;;;;570188;251;24082;-80
2022/11/21 02:40:26;;;;;;;12.57;8.37;;;0.10;99.90;-0.90;99228;;;;563787;251;24117;-78
2022/11/21 02:43:12;;;;;;;20.00;11.70;;;0.10;99.90;-0.90;99232;;;;570108;249;24125;-79
2022/11/21 02:45:47;;;;;;;8.07;6.37;;;0.00;99.90;-0.90;99238;;;;573392;248;24074;-80
2022/11/21 02:48:11;;;;;;;22.97;12.33;;;0.00;99.90;-0.90;99236;;;;561681;250;25239;-79
2022/11/21 02:50:40;;;;;;;16.80;10.20;;;0.00;99.90;-0.90;99239;;;;566408;250;24160;-79
2022/11/21 02:53:07;;;;;;;15.67;9.80;;;0.00;99.90;-1.00;99232;;;;565960;250;24115;-79
2022/11/21 02:55:38;;;;;;;18.70;12.63;;;0.00;99.90;-1.00;99233;;;;570896;249;24132;-79
2022/11/21 02:58:06;;;;;;;21.63;12.07;;;-0.10;99.90;-1.00;99237;;;;565815;251;24139;-79
2022/11/21 03:00:31;;;;;;;24.93;14.17;;;0.00;99.90;-1.00;99232;;;;565440;251;24098;-79
2022/11/21 03:02:59;;;;;;;23.90;14.27;;;-0.10;99.90;-1.00;99229;;;;565722;251;24116;-78
2022/11/21 03:05:28;;;;;;;26.43;13.60;;;-0.10;99.90;-1.00;99238;;;;570645;245;24108;-79
2022/11/21 03:07:59;;;;;;;21.53;13.40;;;-0.10;99.90;-1.00;99246;;;;565241;251;57228;-80
2022/11/21 03:10:25;;;;;;;14.27;9.20;;;-0.10;99.90;-1.00;99247;;;;569964;251;24083;-79
2022/11/21 03:12:59;;;;;;;20.37;11.33;;;-0.10;99.90;-1.00;99251;;;;569957;251;24087;-79
2022/11/21 03:15:24;;;;;;;19.43;9.63;;;-0.10;99.90;-1.00;99250;;;;569929;251;24183;-79
2022/11/21 03:17:52;;;;;;;18.52;11.48;;;-0.10;99.90;-1.00;99250;;;;555940;251;35298;-80
2022/11/21 03:20:19;;;;;;;7.63;4.63;;;-0.10;99.90;-0.90;99260;;;;570175;251;24104;-80
2022/11/21 03:22:48;;;;;;;28.20;12.63;;;0.00;99.90;-0.90;99264;;;;570062;251;24089;-80
2022/11/21 03:25:19;;;;;;;20.00;10.33;;;0.00;99.90;-0.90;99276;;;;569878;251;24076;-79
2022/11/21 03:27:45;;;;;;;29.77;16.03;;;0.00;99.90;-0.90;99275;;;;573136;249;24087;-79
2022/11/21 03:30:16;;;;;;;17.60;10.00;;;0.00;99.90;-0.90;99277;;;;569639;251;24123;-79
2022/11/21 03:32:41;;;;;;;19.77;11.30;;;0.00;99.90;-0.90;99276;;;;560507;250;24082;-80
2022/11/21 03:35:11;;;;;;;17.50;8.73;;;0.00;99.90;-1.00;99272;;;;565112;251;24134;-80
2022/11/21 03:37:36;;;;;;;21.43;12.17;;;0.00;99.90;-1.00;99268;;;;560400;251;24093;-80
2022/11/21 03:40:09;;;;;;;23.20;12.53;;;0.00;99.90;-1.00;99266;;;;569721;246;24135;-80
2022/11/21 03:42:34;;;;;;;25.80;14.23;;;-0.10;99.90;-0.90;99274;;;;559462;251;24071;-79
2022/11/21 03:45:02;;;;;;;21.20;11.40;;;-0.10;99.90;-1.00;99276;;;;569720;245;24196;-80
2022/11/21 03:47:31;;;;;;;16.33;9.83;;;-0.10;99.90;-1.00;99272;;;;569651;245;24134;-80
2022/11/21 03:49:59;;;;;;;21.03;10.83;;;-0.10;99.90;-1.00;99269;;;;569806;251;24074;-80
2022/11/21 03:52:26;;;;;;;22.67;12.53;;;-0.10;99.90;-1.00;99267;;;;569717;251;24116;-80
2022/11/21 03:54:54;;;;;;;21.17;12.67;;;-0.10;99.90;-1.00;99275;;;;569867;245;24081;-80
2022/11/21 03:57:22;;;;;;;17.87;9.87;;;-0.10;99.90;-1.00;99271;;;;569805;251;24136;-80
2022/11/21 03:59:50;;;;;;;16.23;9.50;;;-0.10;99.90;-1.00;99277;;;;570337;246;24123;-80
2022/11/21 04:02:18;;;;;;;16.00;8.50;;;-0.10;99.90;-1.00;99275;;;;570968;250;24212;-80
2022/11/21 04:04:46;;;;;;;18.10;10.83;;;-0.10;99.90;-1.00;99284;;;;570660;250;24074;-79
2022/11/21 04:07:15;;;;;;;19.27;11.20;;;0.00;99.90;-1.00;99275;;;;571032;245;24080;-79
2022/11/21 04:09:42;;;;;;;15.73;9.03;;;0.00;99.90;-0.90;99274;;;;570774;251;24128;-79
2022/11/21 04:12:11;;;;;;;27.40;15.75;;;0.00;99.90;-0.90;99277;;;;565704;251;35284;-80
2022/11/21 04:14:38;;;;;;;14.27;9.37;;;0.00;99.90;-0.90;99275;;;;570307;245;24118;-79
2022/11/21 04:17:06;;;;;;;23.93;13.40;;;0.00;99.90;-0.90;99276;;;;570179;251;24124;-80
2022/11/21 04:19:35;;;;;;;24.60;12.70;;;0.00;99.90;-1.00;99285;;;;569996;251;24086;-78
2022/11/21 04:22:03;;;;;;;22.87;14.70;;;-0.10;99.90;-1.00;99284;;;;565026;251;46288;-82
2022/11/21 04:24:31;;;;;;;15.77;9.67;;;0.00;99.90;-1.00;99286;;;;570154;251;24183;-80
2022/11/21 04:26:59;;;;;;;15.43;9.60;;;0.00;99.90;-1.00;99273;;;;570055;251;24117;-80
2022/11/21 04:29:27;;;;;;;16.10;10.03;;;0.00;99.90;-1.00;99287;;;;569936;251;24091;-79
2022/11/21 04:31:55;;;;;;;14.30;8.40;;;0.00;99.90;-1.00;99283;;;;570047;245;24120;-79
2022/11/21 04:34:22;;;;;;;17.53;9.73;;;0.00;99.90;-1.00;99275;;;;570000;251;24089;-80
2022/11/21 04:36:50;;;;;;;10.73;7.03;;;-0.10;99.90;-1.00;99278;;;;569907;251;24141;-79
2022/11/21 04:39:18;;;;;;;15.57;9.47;;;-0.10;99.90;-1.00;99262;;;;569741;251;24125;-80
2022/11/21 04:41:46;;;;;;;17.83;9.47;;;0.00;99.90;-1.00;99264;;;;569881;251;25128;-80
2022/11/21 04:44:14;;;;;;;22.53;10.87;;;-0.10;99.90;-1.00;99269;;;;569822;251;24138;-79
2022/11/21 04:46:42;;;;;;;22.20;13.90;;;-0.10;99.90;-1.00;99264;;;;569654;245;24180;-80
2022/11/21 04:49:10;;;;;;;15.50;9.30;;;-0.10;99.90;-1.10;99257;;;;569839;251;24110;-80
2022/11/21 04:51:39;;;;;;;19.20;11.60;;;-0.20;99.90;-1.10;99252;;;;569818;251;24105;-80
2022/11/21 04:54:07;;;;;;;18.77;10.17;;;-0.20;99.90;-1.10;99250;;;;569907;251;24104;-80
2022/11/21 04:56:35;;;;;;;18.57;11.27;;;-0.20;99.90;-1.10;99249;;;;569799;251;24126;-80
2022/11/21 04:59:03;;;;;;;12.87;8.00;;;-0.20;99.90;-1.20;99249;;;;573100;248;24125;-79
2022/11/21 05:01:32;;;;;;;19.00;11.53;;;-0.30;99.90;-1.20;99251;;;;569807;251;24090;-79
2022/11/21 05:04:01;;;;;;;25.57;14.57;;;-0.40;99.90;-1.30;99234;;;;569721;251;24093;-79
2022/11/21 05:06:28;;;;;;;15.63;9.63;;;-0.40;99.90;-1.30;99236;;;;569891;251;24094;-80
2022/11/21 05:08:56;;;;;;;23.73;13.37;;;-0.40;99.90;-1.30;99242;;;;570164;245;25121;-79
2022/11/21 05:14:10;;;;;;;32.20;17.37;;;-0.40;99.90;-1.40;99246;;;;571025;250;24138;-80
2022/11/21 05:16:38;;;;;;;20.37;12.80;;;-0.50;99.90;-1.40;99247;;;;571022;250;24132;-80
2022/11/21 05:19:06;;;;;;;18.80;11.70;;;-0.50;99.90;-1.40;99250;;;;570941;250;24093;-80
2022/11/21 05:21:35;;;;;;;26.20;15.97;;;-0.50;99.90;-1.40;99252;;;;570441;251;24092;-79
2022/11/21 05:24:03;;;;;;;23.00;13.83;;;-0.50;99.90;-1.40;99251;;;;570304;251;24159;-79
2022/11/21 05:26:31;;;;;;;27.83;16.43;;;-0.50;99.90;-1.40;99258;;;;570264;251;24184;-80
2022/11/21 05:28:58;;;;;;;19.20;11.57;;;-0.50;99.90;-1.40;99257;;;;570277;245;24189;-79
2022/11/21 05:31:29;;;;;;;18.40;11.83;;;-0.50;99.90;-1.40;99248;;;;565379;251;24166;-80
2022/11/21 05:33:54;;;;;;;14.30;8.83;;;-0.50;99.90;-1.40;99251;;;;560696;251;24162;-80
2022/11/21 05:36:22;;;;;;;21.40;12.60;;;-0.40;99.90;-1.40;99252;;;;570067;251;24081;-80
2022/11/21 05:38:50;;;;;;;15.77;10.93;;;-0.40;99.90;-1.30;99249;;;;569977;251;24128;-81
2022/11/21 05:41:18;;;;;;;24.30;14.97;;;-0.40;99.90;-1.30;99243;;;;570072;251;24075;-80
2022/11/21 05:43:46;;;;;;;13.93;8.53;;;-0.40;99.90;-1.30;99248;;;;569983;251;24108;-79
2022/11/21 05:46:14;;;;;;;17.50;12.27;;;-0.40;99.90;-1.30;99254;;;;570108;251;24129;-79
2022/11/21 05:48:42;;;;;;;17.83;11.43;;;-0.40;99.90;-1.30;99254;;;;569552;250;24094;-79
2022/11/21 05:51:10;;;;;;;13.10;8.27;;;-0.40;99.90;-1.30;99253;;;;569909;251;24112;-81
2022/11/21 05:53:39;;;;;;;15.97;9.13;;;-0.30;99.90;-1.20;99252;;;;573357;250;24146;-79
2022/11/21 05:56:06;;;;;;;12.00;8.33;;;-0.30;99.90;-1.20;99247;;;;569701;251;24138;-80
2022/11/21 05:58:35;;;;;;;11.33;7.63;;;-0.30;99.90;-1.20;99252;;;;569783;249;24149;-80
2022/11/21 06:01:04;;;;;;;9.80;7.03;;;-0.20;99.90;-1.10;99255;;;;569717;251;24143;-80
2022/11/21 06:03:32;;;;;;;10.40;6.73;;;-0.20;99.90;-1.10;99257;;;;569763;251;24094;-81
2022/11/21 06:06:05;;;;;;;13.87;8.53;;;-0.20;99.90;-1.10;99256;;;;569769;249;24128;-81
2022/11/21 06:08:33;;;;;;;14.10;9.53;;;-0.20;99.90;-1.10;99255;;;;565185;251;24097;-81
2022/11/21 06:11:01;;;;;;;10.40;6.73;;;-0.20;99.90;-1.10;99259;;;;570031;245;25170;-80
2022/11/21 06:13:30;;;;;;;17.50;10.77;;;-0.20;99.90;-1.10;99254;;;;565033;251;24145;-80
2022/11/21 06:16:01;;;;;;;15.20;10.63;;;-0.20;99.90;-1.10;99257;;;;570223;251;24096;-78
2022/11/21 06:18:29;;;;;;;10.33;8.17;;;-0.20;99.90;-1.10;99257;;;;570264;251;24162;-80
2022/11/21 06:21:00;;;;;;;14.10;11.00;;;-0.20;99.90;-1.10;99261;;;;570040;246;24178;-79
2022/11/21 06:23:28;;;;;;;11.80;8.33;;;-0.20;99.90;-1.20;99273;;;;574126;247;24084;-79
2022/11/21 06:25:59;;;;;;;13.50;9.73;;;-0.30;99.90;-1.20;99271;;;;571091;250;24159;-80
2022/11/21 06:28:27;;;;;;;8.27;6.33;;;-0.30;99.90;-1.30;99272;;;;565243;250;24223;-80
2022/11/21 06:30:52;;;;;;;11.10;7.47;;;-0.30;99.90;-1.30;99276;;;;570221;250;24123;-79
2022/11/21 06:33:20;;;;;;;14.77;11.13;;;-0.40;99.90;-1.30;99282;;;;565339;251;24116;-79
2022/11/21 06:35:48;;;;;;;9.50;6.33;;;-0.30;99.90;-1.30;99282;;;;565289;251;24238;-79
2022/11/21 06:38:17;;;;;;;14.40;8.93;;;-0.30;99.90;-1.30;99276;;;;565412;251;24129;-80
2022/11/21 06:40:44;;;;;;;12.60;9.03;;;-0.30;99.90;-1.20;99289;;;;561307;251;24125;-80
2022/11/21 06:43:13;;;;;;;28.03;17.73;;;-0.30;99.90;-1.20;99278;;;;570422;251;24281;-79
2022/11/21 06:45:41;;;;;;;18.83;11.47;;;-0.30;99.90;-1.20;99286;;;;570443;251;24124;-81
2022/11/21 06:48:09;;;;;;;23.30;14.83;;;-0.30;99.90;-1.20;99289;;;;570453;251;24105;-80
2022/11/21 06:50:37;;;;;;;21.20;13.47;;;-0.30;99.90;-1.20;99279;;;;570386;251;24085;-81
2022/11/21 06:53:05;;;;;;;24.17;15.20;;;-0.30;99.90;-1.20;99289;;;;570266;251;24132;-80
2022/11/21 06:55:36;;;;;;;31.23;18.70;;;-0.30;99.90;-1.20;99306;;;;570365;251;24078;-81
2022/11/21 06:58:00;;;;;;;21.17;13.13;;;-0.30;99.90;-1.30;99288;;;;562325;251;24124;-79
2022/11/21 07:00:28;;;;;;;24.10;15.27;;;-0.30;99.90;-1.30;99304;;;;570112;251;24168;-80
2022/11/21 07:03:05;;;;;;;27.87;17.17;;;-0.30;99.90;-1.30;99299;;;;573707;249;24130;-81
2022/11/21 07:05:31;;;;;;;24.97;15.30;;;-0.30;99.90;-1.30;99295;;;;564914;251;24095;-79
2022/11/21 07:08:05;;;;;;;22.23;14.33;;;-0.40;99.90;-1.30;99291;;;;573673;250;24081;-81
2022/11/21 07:10:29;;;;;;;25.20;15.87;;;-0.40;99.90;-1.30;99289;;;;569561;249;24087;-80
2022/11/21 07:15:43;;;;;;;28.70;17.90;;;-0.40;99.90;-1.30;99307;;;;573294;249;24098;-79
2022/11/21 07:18:11;;;;;;;20.73;13.27;;;-0.30;99.90;-1.30;99298;;;;564804;251;24106;-80
2022/11/21 07:20:39;;;;;;;22.40;14.90;;;-0.30;99.90;-1.30;99308;;;;569747;249;24090;-79
2022/11/21 07:23:11;;;;;;;19.47;12.07;;;-0.30;99.90;-1.20;99306;;;;560969;251;24122;-81
2022/11/21 07:25:35;;;;;;;31.00;18.27;;;-0.30;99.90;-1.20;99313;;;;562750;251;24142;-79
2022/11/21 07:28:06;;;;;;;23.37;15.90;;;-0.30;99.90;-1.20;99297;;;;569678;245;24124;-80
2022/11/21 07:30:32;;;;;;;32.57;19.60;;;-0.20;99.90;-1.10;99306;;;;562763;251;24125;-80
2022/11/21 07:33:00;;;;;;;19.03;11.70;;;-0.10;99.90;-1.10;99293;;;;569633;251;24060;-80
2022/11/21 07:35:28;;;;;;;15.03;9.77;;;-0.20;99.90;-1.00;99297;;;;570895;249;24134;-80
2022/11/21 07:37:56;;;;;;;23.10;13.77;;;0.00;99.90;-0.90;99300;;;;574383;248;24088;-79
2022/11/21 07:40:24;;;;;;;35.87;18.73;;;0.10;99.90;-0.80;99289;;;;570646;250;24090;-79
2022/11/21 07:42:52;;;;;;;21.70;13.57;;;0.10;99.90;-0.80;99289;;;;570511;250;24073;-79
2022/11/21 07:45:20;;;;;;;14.70;10.03;;;0.10;99.90;-0.80;99289;;;;570173;251;24154;-79
2022/11/21 07:47:49;;;;;;;26.37;16.90;;;0.10;99.90;-0.80;99284;;;;570329;251;24155;-76
2022/11/21 07:50:16;;;;;;;16.83;10.53;;;0.10;99.90;-0.80;99288;;;;569825;251;24119;-79
2022/11/21 07:52:44;;;;;;;22.47;14.30;;;0.20;99.90;-0.80;99287;;;;570282;251;24100;-79
2022/11/21 07:55:12;;;;;;;27.50;16.23;;;0.20;99.90;-0.80;99293;;;;565038;251;24157;-79
2022/11/21 07:57:40;;;;;;;24.40;13.23;;;0.10;99.90;-0.80;99298;;;;569928;251;24114;-79
2022/11/21 08:00:11;;;;;;;16.70;10.30;;;0.10;99.90;-0.90;99298;;;;569993;251;24110;-81
2022/11/21 08:02:36;;;;;;;14.03;9.90;;;0.10;99.90;-0.90;99295;;;;560436;251;24129;-81
2022/11/21 08:05:04;;;;;;;14.90;9.60;;;0.10;99.90;-0.80;99289;;;;565133;251;24080;-81
2022/11/21 08:07:32;;;;;;;18.40;12.50;;;0.10;99.90;-0.80;99290;;;;573544;246;24067;-80
2022/11/21 08:10:00;;;;;;;15.53;10.27;;;0.20;99.90;-0.80;99287;;;;570331;251;24154;-79
2022/11/21 08:12:28;;;;;;;13.10;9.20;;;0.10;99.90;-0.80;99290;;;;570073;251;24167;-80
2022/11/21 08:14:56;;;;;;;16.57;11.70;;;0.20;99.90;-0.80;99292;;;;569627;251;24094;-80
2022/11/21 08:17:26;;;;;;;14.70;9.73;;;0.20;99.90;-0.70;99284;;;;569659;251;24126;-79
2022/11/21 08:19:54;;;;;;;21.70;13.93;;;0.30;99.90;-0.60;99289;;;;564731;251;24154;-80
2022/11/21 08:22:22;;;;;;;21.33;12.27;;;0.40;99.90;-0.60;99284;;;;569847;251;24104;-80
2022/11/21 08:24:50;;;;;;;23.87;15.07;;;0.40;99.90;-0.60;99290;;;;569755;251;24089;-80
2022/11/21 08:27:20;;;;;;;19.20;11.43;;;0.40;99.90;-0.60;99299;;;;569938;251;24106;-80
2022/11/21 08:29:47;;;;;;;15.73;9.30;;;0.30;99.90;-0.50;99294;;;;573417;250;24090;-80
2022/11/21 08:32:15;;;;;;;14.97;9.93;;;0.50;99.90;-0.30;99314;;;;564757;251;24202;-80
2022/11/21 08:34:43;;;;;;;19.97;13.43;;;0.60;99.90;-0.30;99298;;;;569861;251;24094;-80
2022/11/21 08:37:10;;;;;;;11.37;8.50;;;0.70;99.90;-0.10;99305;;;;569770;251;25135;-80
2022/11/21 08:39:38;;;;;;;11.73;8.37;;;0.80;99.90;0.10;99306;;;;560709;251;24066;-80
2022/11/21 08:42:06;;;;;;;12.60;9.17;;;1.00;99.90;0.20;99308;;;;569764;246;24084;-80
2022/11/21 08:44:38;;;;;;;15.77;10.57;;;1.20;99.90;0.30;99304;;;;569704;251;24146;-79
2022/11/21 08:47:05;;;;;;;9.43;7.90;;;1.30;99.90;0.40;99310;;;;574250;248;24098;-80
2022/11/21 08:49:30;;;;;;;21.20;14.43;;;1.50;99.90;0.60;99309;;;;561374;249;24125;-80
2022/11/21 08:51:58;;;;;;;10.97;8.00;;;1.60;99.90;0.70;99308;;;;570696;245;24097;-79
2022/11/21 08:54:26;;;;;;;13.93;10.43;;;1.70;99.90;0.90;99314;;;;570558;250;24089;-79
2022/11/21 08:56:54;;;;;;;17.60;12.23;;;2.00;99.90;1.00;99321;;;;570628;251;24110;-79
2022/11/21 08:59:22;;;;;;;21.10;13.20;;;2.10;99.90;1.00;99321;;;;570423;245;24143;-79
2022/11/21 09:01:51;;;;;;;13.10;8.83;;;2.10;99.90;0.90;99320;;;;570310;251;24187;-81
2022/11/21 09:04:17;;;;;;;13.00;9.07;;;2.00;99.90;0.70;99323;;;;570231;251;24078;-77
2022/11/21 09:06:45;;;;;;;10.27;6.27;;;1.90;99.90;0.80;99327;;;;570099;251;24125;-80
2022/11/21 09:09:16;;;;;;;12.73;8.77;;;1.80;99.90;0.80;99322;;;;570196;251;24074;-79
2022/11/21 09:11:44;;;;;;;9.37;7.10;;;1.90;99.90;0.80;99326;;;;570299;251;24089;-80
2022/11/21 09:19:41;;;;;;;10.07;5.87;;;1.80;99.90;0.60;99315;;;;574137;249;24085;-80
2022/11/21 09:22:09;;;;;;;12.20;6.57;;;1.70;99.90;0.80;99325;;;;570320;245;24086;-79
2022/11/21 09:24:37;;;;;;;9.20;7.50;;;1.80;99.90;0.80;99333;;;;570215;245;24139;-79
2022/11/21 09:27:05;;;;;;;14.03;8.00;;;1.90;99.90;0.80;99327;;;;570262;251;24147;-80
2022/11/21 09:29:33;;;;;;;7.67;4.50;;;1.90;99.90;0.80;99331;;;;569948;251;24098;-80
2022/11/21 09:32:01;;;;;;;17.50;8.50;;;1.90;99.90;0.70;99333;;;;569879;251;24208;-79
2022/11/21 09:34:30;;;;;;;9.13;8.03;;;1.90;99.90;0.60;99340;;;;564778;251;24075;-79
2022/11/21 09:36:57;;;;;;;30.67;19.87;;;1.70;99.90;0.30;99334;;;;569748;251;24133;-78
2022/11/21 09:39:24;;;;;;;33.37;22.53;;;1.50;99.90;0.10;99330;;;;569784;251;24078;-79
2022/11/21 09:42:20;;;;;;;49.57;31.60;;;1.30;99.90;0.20;99328;;;;569881;251;24096;-78
2022/11/21 09:45:18;;;;;;;41.03;29.70;;;1.30;99.90;0.20;99334;;;;564700;251;24080;-78
2022/11/21 09:47:45;;;;;;;53.40;35.40;;;1.30;99.90;0.20;99336;;;;569518;250;24130;-78
2022/11/21 09:50:13;;;;;;;55.40;35.17;;;1.30;99.90;-0.10;99333;;;;569796;245;24086;-78
2022/11/21 09:52:41;;;;;;;60.13;37.10;;;1.10;99.90;-0.30;99338;;;;564803;251;24111;-78
2022/11/21 09:55:34;;;;;;;59.47;37.57;;;0.70;99.90;-0.50;99337;;;;573348;250;24146;-79
2022/11/21 09:58:02;;;;;;;60.60;37.87;;;0.60;99.90;-0.70;99350;;;;563627;250;24097;-79
2022/11/21 10:00:30;;;;;;;59.67;37.90;;;0.50;99.90;-0.70;99353;;;;570932;245;24075;-80
2022/11/21 10:02:58;;;;;;;56.87;35.30;;;0.40;99.90;-0.60;99351;;;;565671;250;24141;-80
2022/11/21 10:05:41;;;;;;;61.50;40.63;;;0.40;99.90;-0.70;99358;;;;565640;250;24143;-80
2022/11/21 10:08:29;;;;;;;57.67;33.47;;;0.30;99.90;-0.70;99353;;;;569984;249;24155;-79
2022/11/21 10:11:11;;;;;;;53.97;33.03;;;0.30;99.90;-0.60;99350;;;;568107;249;24296;-78
2022/11/21 10:13:57;;;;;;;59.80;38.00;;;0.40;99.90;-0.50;99347;;;;565436;250;25143;-78
2022/11/21 10:16:39;;;;;;;61.80;39.90;;;0.50;99.90;-0.20;99336;;;;569765;251;24114;-79
2022/11/21 10:19:13;;;;;;;60.90;39.00;;;0.70;99.90;-0.10;99349;;;;569894;251;24289;-80
2022/11/21 10:21:53;;;;;;;39.63;28.33;;;0.90;99.90;0.10;99342;;;;566486;248;24098;-80
2022/11/21 10:24:27;;;;;;;61.53;38.27;;;1.10;99.90;0.30;99342;;;;573509;250;24131;-79
2022/11/21 10:26:55;;;;;;;49.20;34.27;;;1.30;99.90;0.20;99334;;;;570449;247;24114;-80
2022/11/21 10:29:35;;;;;;;46.73;28.70;;;1.30;99.90;0.20;99336;;;;551733;257;24131;-82
2022/11/21 10:32:02;;;;;;;44.10;31.90;;;1.30;99.90;0.20;99328;;;;575261;246;24066;-74
2022/11/21 10:34:30;;;;;;;33.67;25.10;;;1.30;99.90;0.20;99335;;;;574709;246;24118;-80
2022/11/21 10:37:02;;;;;;;31.27;22.53;;;1.20;99.90;0.10;99344;;;;567468;250;24102;-78
2022/11/21 10:39:38;;;;;;;38.77;26.13;;;1.20;99.90;0.10;99337;;;;558933;255;24174;-80
2022/11/21 10:42:35;;;;;;;26.97;19.87;;;1.20;99.90;0.30;99337;;;;570031;245;24128;-77
2022/11/21 10:45:17;;;;;;;38.07;25.57;;;1.30;99.90;0.20;99343;;;;556194;249;24159;-75
2022/11/21 10:47:47;;;;;;;34.47;23.70;;;1.30;99.90;0.20;99336;;;;563841;252;24118;-76
2022/11/21 10:50:21;;;;;;;45.93;31.63;;;1.30;99.90;0.10;99324;;;;565663;250;24169;-79
2022/11/21 10:52:49;;;;;;;41.50;29.80;;;1.20;99.90;0.00;99333;;;;551803;256;24069;-78
2022/11/21 10:55:19;;;;;;;38.27;27.40;;;1.10;99.90;0.00;99346;;;;549077;260;24119;-79
2022/11/21 10:57:47;;;;;;;40.43;30.23;;;1.10;99.90;0.00;99341;;;;558720;253;24078;-78
2022/11/21 11:00:19;;;;;;;49.33;34.67;;;1.10;99.90;0.10;99336;;;;549144;257;24077;-79
2022/11/21 11:03:05;;;;;;;56.20;37.30;;;1.10;99.90;0.10;99342;;;;549835;255;25305;-76
2022/11/21 11:05:32;;;;;;;38.27;26.13;;;1.20;99.90;-0.10;99356;;;;551719;257;24090;-78
2022/11/21 11:08:03;;;;;;;49.60;33.53;;;1.00;99.90;-0.30;99345;;;;541843;260;24126;-78
2022/11/21 11:10:31;;;;;;;55.50;36.80;;;0.90;99.90;-0.40;99353;;;;560945;254;24092;-78
2022/11/21 11:16:03;;;;;;;59.67;35.93;;;0.70;99.90;-0.40;99337;;;;560206;256;24083;-76
2022/11/21 11:18:33;;;;;;;64.80;43.80;;;0.60;99.90;-0.30;99335;;;;545130;261;34861;-74
2022/11/21 11:21:11;;;;;;;22.90;12.87;;;0.70;99.90;-0.20;99332;;;;559202;251;24067;-77
2022/11/21 11:23:38;;;;;;;59.10;36.60;;;0.80;99.90;-0.10;99335;;;;549407;260;24063;-74
2022/11/21 11:26:06;;;;;;;56.80;36.53;;;0.90;99.90;-0.20;99347;;;;552557;256;24099;-77
2022/11/21 11:28:34;;;;;;;58.03;37.67;;;0.80;99.90;-0.40;99349;;;;549623;260;24099;-80
2022/11/21 11:31:05;;;;;;;52.27;35.20;;;0.70;99.90;-0.40;99341;;;;560446;253;24071;-76
2022/11/21 11:33:36;;;;;;;60.13;39.50;;;0.70;99.90;-0.50;99339;;;;545933;261;24112;-79
2022/11/21 11:36:13;;;;;;;51.13;34.00;;;0.60;99.90;-0.40;99345;;;;559595;251;24067;-78